sensor_id;sensor_type;location;lat;lon;timestamp;P1;durP1;ratioP1;P2;durP2;ratioP2
595;SDS011;19946;49.306;11.350;2023-11-21T04:36:13;5.60;;;5.60;;
595;SDS011;19946;49.306;11.350;2023-11-21T05:01:23;9.07;;;8.87;;
595;SDS011;19946;49.306;11.350;2023-11-21T05:05:36;7.93;;;7.83;;
595;SDS011;19946;49.306;11.350;2023-11-21T05:09:28;9.47;;;9.30;;
595;SDS011;19946;49.306;11.350;2023-11-21T05:16:39;7.67;;;6.87;;
595;SDS011;19946;49.306;11.350;2023-11-21T05:20:48;2.70;;;2.50;;
595;SDS011;19946;49.306;11.350;2023-11-21T05:29:48;1.83;;;1.83;;
595;SDS011;19946;49.306;11.350;2023-11-21T05:39:03;3.63;;;3.53;;
595;SDS011;19946;49.306;11.350;2023-11-21T05:55:00;4.57;;;4.57;;
595;SDS011;19946;49.306;11.350;2023-11-21T06:03:08;5.00;;;4.90;;
595;SDS011;19946;49.306;11.350;2023-11-21T06:06:19;3.90;;;3.90;;
595;SDS011;19946;49.306;11.350;2023-11-21T06:10:22;4.60;;;4.50;;
595;SDS011;19946;49.306;11.350;2023-11-21T06:13:57;6.30;;;6.20;;
595;SDS011;19946;49.306;11.350;2023-11-21T06:17:36;5.60;;;5.60;;
595;SDS011;19946;49.306;11.350;2023-11-21T06:20:42;5.00;;;5.00;;
595;SDS011;19946;49.306;11.350;2023-11-21T06:24:26;4.93;;;4.93;;
595;SDS011;19946;49.306;11.350;2023-11-21T06:31:50;9.10;;;9.00;;
595;SDS011;19946;49.306;11.350;2023-11-21T06:36:01;6.40;;;6.30;;
595;SDS011;19946;49.306;11.350;2023-11-21T06:47:28;8.13;;;7.63;;
595;SDS011;19946;49.306;11.350;2023-11-21T06:50:33;4.43;;;4.43;;
595;SDS011;19946;49.306;11.350;2023-11-21T06:55:03;5.60;;;5.50;;
595;SDS011;19946;49.306;11.350;2023-11-21T06:59:14;5.40;;;5.30;;
595;SDS011;19946;49.306;11.350;2023-11-21T07:07:31;4.43;;;4.33;;
595;SDS011;19946;49.306;11.350;2023-11-21T07:11:40;6.23;;;6.13;;
595;SDS011;19946;49.306;11.350;2023-11-21T07:15:10;10.37;;;9.77;;
595;SDS011;19946;49.306;11.350;2023-11-21T07:18:27;8.40;;;8.30;;
595;SDS011;19946;49.306;11.350;2023-11-21T07:21:55;9.90;;;9.70;;
595;SDS011;19946;49.306;11.350;2023-11-21T07:25:06;11.57;;;11.37;;
595;SDS011;19946;49.306;11.350;2023-11-21T07:28:19;10.33;;;10.13;;
595;SDS011;19946;49.306;11.350;2023-11-21T07:31:23;8.57;;;8.40;;
595;SDS011;19946;49.306;11.350;2023-11-21T07:34:52;8.33;;;8.23;;
595;SDS011;19946;49.306;11.350;2023-11-21T07:38:04;12.20;;;12.00;;
595;SDS011;19946;49.306;11.350;2023-11-21T07:41:40;14.20;;;13.90;;
595;SDS011;19946;49.306;11.350;2023-11-21T07:45:58;10.90;;;10.60;;
595;SDS011;19946;49.306;11.350;2023-11-21T07:49:51;11.13;;;10.63;;
595;SDS011;19946;49.306;11.350;2023-11-21T07:57:26;9.80;;;9.40;;
595;SDS011;19946;49.306;11.350;2023-11-21T08:01:40;10.80;;;10.60;;
595;SDS011;19946;49.306;11.350;2023-11-21T08:05:02;11.83;;;11.63;;
595;SDS011;19946;49.306;11.350;2023-11-21T08:13:12;11.30;;;11.10;;
595;SDS011;19946;49.306;11.350;2023-11-21T08:21:11;12.97;;;12.67;;
595;SDS011;19946;49.306;11.350;2023-11-21T08:25:02;15.63;;;15.30;;
595;SDS011;19946;49.306;11.350;2023-11-21T08:28:15;12.83;;;12.53;;
595;SDS011;19946;49.306;11.350;2023-11-21T08:31:44;17.73;;;16.80;;
595;SDS011;19946;49.306;11.350;2023-11-21T08:35:32;9.83;;;9.63;;
595;SDS011;19946;49.306;11.350;2023-11-21T08:39:00;13.57;;;13.27;;
595;SDS011;19946;49.306;11.350;2023-11-21T08:42:09;13.87;;;13.57;;
595;SDS011;19946;49.306;11.350;2023-11-21T08:56:30;9.60;;;9.40;;
595;SDS011;19946;49.306;11.350;2023-11-21T09:00:05;11.20;;;11.00;;
595;SDS011;19946;49.306;11.350;2023-11-21T09:04:20;14.73;;;14.43;;
595;SDS011;19946;49.306;11.350;2023-11-21T09:07:49;14.53;;;14.23;;
595;SDS011;19946;49.306;11.350;2023-11-21T09:11:03;12.20;;;12.00;;
595;SDS011;19946;49.306;11.350;2023-11-21T09:14:39;12.20;;;12.00;;
595;SDS011;19946;49.306;11.350;2023-11-21T09:17:48;13.17;;;12.87;;
595;SDS011;19946;49.306;11.350;2023-11-21T09:20:53;12.00;;;11.80;;
595;SDS011;19946;49.306;11.350;2023-11-21T09:24:03;12.10;;;11.90;;
595;SDS011;19946;49.306;11.350;2023-11-21T09:27:07;11.60;;;11.40;;
595;SDS011;19946;49.306;11.350;2023-11-21T09:30:09;10.43;;;10.23;;
595;SDS011;19946;49.306;11.350;2023-11-21T09:33:19;9.03;;;8.93;;
595;SDS011;19946;49.306;11.350;2023-11-21T09:36:26;6.70;;;6.60;;
595;SDS011;19946;49.306;11.350;2023-11-21T09:39:36;6.60;;;6.50;;
595;SDS011;19946;49.306;11.350;2023-11-21T09:42:49;6.37;;;6.27;;
595;SDS011;19946;49.306;11.350;2023-11-21T09:46:05;5.43;;;5.40;;
595;SDS011;19946;49.306;11.350;2023-11-21T09:49:37;6.40;;;6.30;;
595;SDS011;19946;49.306;11.350;2023-11-21T09:56:29;9.83;;;9.63;;
595;SDS011;19946;49.306;11.350;2023-11-21T09:59:46;5.90;;;5.80;;
595;SDS011;19946;49.306;11.350;2023-11-21T10:03:01;8.70;;;8.60;;
595;SDS011;19946;49.306;11.350;2023-11-21T10:06:14;5.67;;;5.57;;
595;SDS011;19946;49.306;11.350;2023-11-21T10:09:47;5.43;;;5.33;;
595;SDS011;19946;49.306;11.350;2023-11-21T10:13:11;6.30;;;6.10;;
595;SDS011;19946;49.306;11.350;2023-11-21T10:16:25;6.20;;;6.10;;
595;SDS011;19946;49.306;11.350;2023-11-21T10:19:58;6.20;;;6.10;;
595;SDS011;19946;49.306;11.350;2023-11-21T10:23:27;5.70;;;5.60;;
595;SDS011;19946;49.306;11.350;2023-11-21T10:26:42;5.80;;;5.70;;
595;SDS011;19946;49.306;11.350;2023-11-21T10:43:43;7.50;;;6.90;;
595;SDS011;19946;49.306;11.350;2023-11-21T11:04:04;4.60;;;4.50;;
